Milan/Linate, Italy

6:49 AM CET on December 06, 2016 (GMT +0100)
Peschiera Borromeo | | Change Station

Elev 318 ft 45.42 °N, 9.31 °E | Updated 3 minutes ago

Mostly Cloudy
Mostly Cloudy
42.1 °F
Feels Like 42 °F
N
1.0
Wind Variable Wind from North
Gusts 4.0 mph

Today
High -- | Low -- °F
--% Chance of Precip.
Yesterday
High -- | Low -- °F
Precip. -- in
Pressure 30.36 in
Visibility 0.7 miles
Clouds Mostly Cloudy 200 ft
Windchill 42 °F
Dew Point 41 °F
Humidity 96%
Rainfall 0.00 in
Snow Depth Not available.
7:48 AM 4:39 PM
Waxing Crescent, 38% visible
METAR LIML 060520Z VRB01KT 1200 R36/P2000VP2000U BR BKN002 06/06 Q1028 NOSIG
Pressure 30.36 in
Visibility 0.7 miles
Clouds Mostly Cloudy 200 ft
Windchill 42 °F
Dew Point 41 °F
Humidity 96%
Rainfall 0.00 in
Snow Depth Not available.
7:48 AM 4:39 PM
Waxing Crescent, 38% visible
METAR LIML 060520Z VRB01KT 1200 R36/P2000VP2000U BR BKN002 06/06 Q1028 NOSIG

10-Day Weather Forecast

×

Almanac

Astronomy

Dec. 06, 2016 Rise Set
Actual Time
Civil Twilight
Nautical Twilight
Astronomical Twilight
Moon
Length of Visible Light
Length of Day
Tomorrow will be .
, % of the Moon is Illuminated

Today's Extremes

Country Highs Country Lows

Community

WunderPhotos

Upload Photos

1,955,931 photos uploaded!

WunderBlog® & News

Nearby

Air Quality

  Air Quality AQ Index Pollutant
Not available.

Snow Depth

Station Depth Elevation

Earthquake Activity

City Distance Mag. Time & Date
Minimum magnitude displayed is 2.5.

Coastal Water Temperatures

Place Temperature

Stations

Nearby Weather Stations

Station Location Temp. Windchill Dew Point Humidity Wind Precip. Elev Updated Type